sensor_id;sensor_type;location;lat;lon;timestamp;P1;P2;P0
80555;PMS5003;69889;55.040;73.076;2023-11-18T00:00:52;41.00;33.00;21.00
80555;PMS5003;69889;55.040;73.076;2023-11-18T00:03:19;42.50;31.00;19.00
80555;PMS5003;69889;55.040;73.076;2023-11-18T00:05:45;37.25;30.00;19.00
80555;PMS5003;69889;55.040;73.076;2023-11-18T00:08:12;35.00;28.75;19.00
80555;PMS5003;69889;55.040;73.076;2023-11-18T00:10:39;37.75;30.00;18.75
80555;PMS5003;69889;55.040;73.076;2023-11-18T00:13:05;37.25;30.00;19.00
80555;PMS5003;69889;55.040;73.076;2023-11-18T00:15:32;38.00;29.00;19.00
80555;PMS5003;69889;55.040;73.076;2023-11-18T00:18:01;36.75;29.50;19.50
80555;PMS5003;69889;55.040;73.076;2023-11-18T00:20:27;37.00;30.00;18.00
80555;PMS5003;69889;55.040;73.076;2023-11-18T00:22:55;38.00;31.00;19.00
80555;PMS5003;69889;55.040;73.076;2023-11-18T00:25:21;37.75;30.00;18.75
80555;PMS5003;69889;55.040;73.076;2023-11-18T00:27:48;41.75;32.75;20.50
80555;PMS5003;69889;55.040;73.076;2023-11-18T00:30:15;37.75;31.00;19.75
80555;PMS5003;69889;55.040;73.076;2023-11-18T00:32:42;40.00;32.75;21.00
80555;PMS5003;69889;55.040;73.076;2023-11-18T00:35:08;41.00;33.00;21.50
80555;PMS5003;69889;55.040;73.076;2023-11-18T00:37:36;46.75;35.25;22.25
80555;PMS5003;69889;55.040;73.076;2023-11-18T00:40:02;47.25;37.00;23.25
80555;PMS5003;69889;55.040;73.076;2023-11-18T00:42:31;47.50;36.50;23.00
80555;PMS5003;69889;55.040;73.076;2023-11-18T00:44:57;47.25;37.00;23.00
80555;PMS5003;69889;55.040;73.076;2023-11-18T00:47:24;48.00;38.00;24.00
80555;PMS5003;69889;55.040;73.076;2023-11-18T00:49:50;46.50;36.50;22.25
80555;PMS5003;69889;55.040;73.076;2023-11-18T00:52:18;44.00;34.25;22.00
80555;PMS5003;69889;55.040;73.076;2023-11-18T00:54:45;44.00;34.50;21.50
80555;PMS5003;69889;55.040;73.076;2023-11-18T00:57:12;47.50;35.75;23.00
80555;PMS5003;69889;55.040;73.076;2023-11-18T00:59:41;47.00;35.75;21.75
80555;PMS5003;69889;55.040;73.076;2023-11-18T01:02:08;43.50;34.25;22.00
80555;PMS5003;69889;55.040;73.076;2023-11-18T01:04:34;42.00;32.75;20.75
80555;PMS5003;69889;55.040;73.076;2023-11-18T01:07:00;40.75;33.00;21.00
80555;PMS5003;69889;55.040;73.076;2023-11-18T01:09:27;42.00;32.75;20.75
80555;PMS5003;69889;55.040;73.076;2023-11-18T01:11:53;39.00;31.00;19.75
80555;PMS5003;69889;55.040;73.076;2023-11-18T01:14:20;40.00;31.00;19.00
80555;PMS5003;69889;55.040;73.076;2023-11-18T01:16:49;37.00;30.00;20.00
80555;PMS5003;69889;55.040;73.076;2023-11-18T01:19:15;41.75;33.00;20.75
80555;PMS5003;69889;55.040;73.076;2023-11-18T01:21:42;41.75;33.00;21.00
80555;PMS5003;69889;55.040;73.076;2023-11-18T01:24:08;40.00;31.25;20.00
80555;PMS5003;69889;55.040;73.076;2023-11-18T01:26:35;47.00;34.00;21.00
80555;PMS5003;69889;55.040;73.076;2023-11-18T01:29:03;43.00;33.00;20.25
80555;PMS5003;69889;55.040;73.076;2023-11-18T01:31:29;41.50;32.00;21.75
80555;PMS5003;69889;55.040;73.076;2023-11-18T01:33:55;45.00;35.00;22.00
80555;PMS5003;69889;55.040;73.076;2023-11-18T01:36:22;41.00;33.00;21.00
80555;PMS5003;69889;55.040;73.076;2023-11-18T01:38:49;44.00;35.00;21.00
80555;PMS5003;69889;55.040;73.076;2023-11-18T01:41:15;44.00;34.00;21.00
80555;PMS5003;69889;55.040;73.076;2023-11-18T01:43:45;43.00;34.00;22.00
80555;PMS5003;69889;55.040;73.076;2023-11-18T01:46:13;41.50;32.75;20.50
80555;PMS5003;69889;55.040;73.076;2023-11-18T01:48:39;42.25;33.50;21.75
80555;PMS5003;69889;55.040;73.076;2023-11-18T01:51:08;45.50;34.50;21.75
80555;PMS5003;69889;55.040;73.076;2023-11-18T01:53:38;41.25;33.00;20.00
80555;PMS5003;69889;55.040;73.076;2023-11-18T01:56:06;39.75;31.75;21.00
80555;PMS5003;69889;55.040;73.076;2023-11-18T01:58:33;40.75;31.25;19.75
80555;PMS5003;69889;55.040;73.076;2023-11-18T02:01:04;33.00;27.00;17.00
80555;PMS5003;69889;55.040;73.076;2023-11-18T02:03:35;35.50;27.75;18.00
80555;PMS5003;69889;55.040;73.076;2023-11-18T02:06:02;35.25;28.50;17.75
80555;PMS5003;69889;55.040;73.076;2023-11-18T02:08:31;32.50;26.50;17.25
80555;PMS5003;69889;55.040;73.076;2023-11-18T02:11:14;35.00;27.00;17.00
80555;PMS5003;69889;55.040;73.076;2023-11-18T02:13:43;32.75;25.00;16.25
80555;PMS5003;69889;55.040;73.076;2023-11-18T02:16:12;31.50;25.75;16.00
80555;PMS5003;69889;55.040;73.076;2023-11-18T02:18:38;34.00;26.00;16.00
80555;PMS5003;69889;55.040;73.076;2023-11-18T02:21:06;30.00;25.00;16.00
80555;PMS5003;69889;55.040;73.076;2023-11-18T02:23:37;26.25;22.25;14.50
80555;PMS5003;69889;55.040;73.076;2023-11-18T02:26:04;30.00;25.00;15.00
80555;PMS5003;69889;55.040;73.076;2023-11-18T02:28:32;28.00;23.00;13.00
80555;PMS5003;69889;55.040;73.076;2023-11-18T02:31:21;24.25;19.25;13.00
80555;PMS5003;69889;55.040;73.076;2023-11-18T02:33:49;26.00;22.00;14.00
80555;PMS5003;69889;55.040;73.076;2023-11-18T02:36:23;26.50;21.50;13.00
80555;PMS5003;69889;55.040;73.076;2023-11-18T02:38:53;28.00;22.00;11.50
80555;PMS5003;69889;55.040;73.076;2023-11-18T02:41:21;28.00;23.00;14.00
80555;PMS5003;69889;55.040;73.076;2023-11-18T02:43:49;26.00;21.00;14.50
80555;PMS5003;69889;55.040;73.076;2023-11-18T02:46:16;26.25;21.50;13.00
80555;PMS5003;69889;55.040;73.076;2023-11-18T02:48:43;25.00;20.00;12.50
80555;PMS5003;69889;55.040;73.076;2023-11-18T02:51:09;23.50;19.50;12.25
80555;PMS5003;69889;55.040;73.076;2023-11-18T02:53:38;26.00;22.00;14.00
80555;PMS5003;69889;55.040;73.076;2023-11-18T02:56:06;20.75;18.50;11.75
80555;PMS5003;69889;55.040;73.076;2023-11-18T02:58:34;24.00;20.00;13.00
80555;PMS5003;69889;55.040;73.076;2023-11-18T03:01:00;28.25;23.50;15.50
80555;PMS5003;69889;55.040;73.076;2023-11-18T03:03:27;32.00;24.25;15.50
80555;PMS5003;69889;55.040;73.076;2023-11-18T03:05:54;31.75;25.00;16.00
80555;PMS5003;69889;55.040;73.076;2023-11-18T03:08:21;31.00;26.00;16.00
80555;PMS5003;69889;55.040;73.076;2023-11-18T03:10:48;34.50;28.00;16.75
80555;PMS5003;69889;55.040;73.076;2023-11-18T03:13:16;35.75;27.25;17.25
80555;PMS5003;69889;55.040;73.076;2023-11-18T03:15:43;35.00;27.00;17.00
80555;PMS5003;69889;55.040;73.076;2023-11-18T03:18:09;30.75;25.00;16.00
80555;PMS5003;69889;55.040;73.076;2023-11-18T03:20:36;33.00;26.00;15.00
80555;PMS5003;69889;55.040;73.076;2023-11-18T03:23:03;23.75;20.50;13.50
80555;PMS5003;69889;55.040;73.076;2023-11-18T03:25:29;23.50;17.50;11.25
80555;PMS5003;69889;55.040;73.076;2023-11-18T03:28:14;23.50;17.75;11.00
80555;PMS5003;69889;55.040;73.076;2023-11-18T03:30:40;20.75;16.00;10.00
80555;PMS5003;69889;55.040;73.076;2023-11-18T03:33:08;19.75;16.00;8.75
80555;PMS5003;69889;55.040;73.076;2023-11-18T03:35:36;18.00;15.00;10.00
80555;PMS5003;69889;55.040;73.076;2023-11-18T03:38:03;18.00;15.00;8.00
80555;PMS5003;69889;55.040;73.076;2023-11-18T03:40:29;13.75;11.75;7.75
80555;PMS5003;69889;55.040;73.076;2023-11-18T03:42:56;16.00;13.50;8.75
80555;PMS5003;69889;55.040;73.076;2023-11-18T03:45:24;18.75;14.00;8.75
80555;PMS5003;69889;55.040;73.076;2023-11-18T03:47:51;18.00;13.75;8.25
80555;PMS5003;69889;55.040;73.076;2023-11-18T03:50:17;16.25;13.00;8.00
80555;PMS5003;69889;55.040;73.076;2023-11-18T03:52:43;17.00;14.00;9.00
80555;PMS5003;69889;55.040;73.076;2023-11-18T03:55:10;15.25;12.50;8.00
80555;PMS5003;69889;55.040;73.076;2023-11-18T03:57:36;15.50;12.75;8.25
80555;PMS5003;69889;55.040;73.076;2023-11-18T04:00:03;18.00;14.25;8.00
80555;PMS5003;69889;55.040;73.076;2023-11-18T04:02:36;19.00;13.00;8.00
80555;PMS5003;69889;55.040;73.076;2023-11-18T04:05:03;16.00;13.00;8.00
80555;PMS5003;69889;55.040;73.076;2023-11-18T04:07:30;14.25;12.75;8.00
80555;PMS5003;69889;55.040;73.076;2023-11-18T04:09:56;15.75;13.25;9.00
80555;PMS5003;69889;55.040;73.076;2023-11-18T04:12:23;16.75;14.00;8.00
80555;PMS5003;69889;55.040;73.076;2023-11-18T04:14:50;17.00;14.00;9.00
80555;PMS5003;69889;55.040;73.076;2023-11-18T04:17:16;14.00;12.50;8.00
80555;PMS5003;69889;55.040;73.076;2023-11-18T04:19:42;14.00;12.00;8.00
80555;PMS5003;69889;55.040;73.076;2023-11-18T04:22:09;15.00;13.50;7.75
80555;PMS5003;69889;55.040;73.076;2023-11-18T04:24:35;17.75;14.00;9.00
80555;PMS5003;69889;55.040;73.076;2023-11-18T04:27:02;16.00;13.00;9.00
80555;PMS5003;69889;55.040;73.076;2023-11-18T04:29:29;17.00;13.00;8.00
80555;PMS5003;69889;55.040;73.076;2023-11-18T04:31:56;18.75;14.25;9.00
80555;PMS5003;69889;55.040;73.076;2023-11-18T04:34:22;17.25;14.00;9.00
80555;PMS5003;69889;55.040;73.076;2023-11-18T04:36:50;18.00;15.00;8.25
80555;PMS5003;69889;55.040;73.076;2023-11-18T04:39:17;18.50;15.00;9.00
80555;PMS5003;69889;55.040;73.076;2023-11-18T04:41:43;16.00;14.00;9.00
80555;PMS5003;69889;55.040;73.076;2023-11-18T04:44:10;16.00;14.00;9.00
80555;PMS5003;69889;55.040;73.076;2023-11-18T04:46:36;15.75;12.00;8.00
80555;PMS5003;69889;55.040;73.076;2023-11-18T04:49:02;17.00;14.00;9.00
80555;PMS5003;69889;55.040;73.076;2023-11-18T04:51:29;18.00;14.75;10.00
80555;PMS5003;69889;55.040;73.076;2023-11-18T04:53:55;17.25;13.75;8.00
80555;PMS5003;69889;55.040;73.076;2023-11-18T04:56:22;17.50;14.25;8.00
80555;PMS5003;69889;55.040;73.076;2023-11-18T04:58:48;18.25;15.00;8.00
80555;PMS5003;69889;55.040;73.076;2023-11-18T05:01:14;18.00;14.00;8.00
80555;PMS5003;69889;55.040;73.076;2023-11-18T05:03:41;14.50;11.75;7.25
80555;PMS5003;69889;55.040;73.076;2023-11-18T05:06:07;15.00;12.00;8.00
80555;PMS5003;69889;55.040;73.076;2023-11-18T05:08:34;15.50;13.50;9.00
80555;PMS5003;69889;55.040;73.076;2023-11-18T05:11:01;16.00;14.00;8.75
80555;PMS5003;69889;55.040;73.076;2023-11-18T05:13:30;15.00;13.00;8.00
80555;PMS5003;69889;55.040;73.076;2023-11-18T05:15:58;17.00;15.00;9.00
80555;PMS5003;69889;55.040;73.076;2023-11-18T05:18:24;14.00;12.00;7.50
80555;PMS5003;69889;55.040;73.076;2023-11-18T05:20:55;19.00;15.25;9.00
80555;PMS5003;69889;55.040;73.076;2023-11-18T05:23:23;16.75;14.00;8.00
80555;PMS5003;69889;55.040;73.076;2023-11-18T05:25:50;15.75;13.00;7.75
80555;PMS5003;69889;55.040;73.076;2023-11-18T05:28:16;18.00;15.00;8.25
80555;PMS5003;69889;55.040;73.076;2023-11-18T05:30:42;14.50;13.00;8.00
80555;PMS5003;69889;55.040;73.076;2023-11-18T05:33:09;17.75;14.75;9.00
80555;PMS5003;69889;55.040;73.076;2023-11-18T05:35:41;15.25;13.00;7.75
80555;PMS5003;69889;55.040;73.076;2023-11-18T05:38:09;15.75;13.50;8.00
80555;PMS5003;69889;55.040;73.076;2023-11-18T05:40:37;13.00;11.00;6.00
80555;PMS5003;69889;55.040;73.076;2023-11-18T05:43:09;16.00;12.00;7.00
80555;PMS5003;69889;55.040;73.076;2023-11-18T05:45:41;14.00;11.00;7.00
80555;PMS5003;69889;55.040;73.076;2023-11-18T05:48:28;11.00;9.75;7.00
80555;PMS5003;69889;55.040;73.076;2023-11-18T05:50:54;12.00;10.00;5.25
80555;PMS5003;69889;55.040;73.076;2023-11-18T05:53:21;9.00;8.00;5.00
80555;PMS5003;69889;55.040;73.076;2023-11-18T05:55:47;8.00;7.00;4.00
80555;PMS5003;69889;55.040;73.076;2023-11-18T05:58:14;11.00;9.00;4.00
80555;PMS5003;69889;55.040;73.076;2023-11-18T06:00:40;10.00;8.00;5.00
80555;PMS5003;69889;55.040;73.076;2023-11-18T06:03:07;9.00;6.00;4.00
80555;PMS5003;69889;55.040;73.076;2023-11-18T06:05:33;5.00;5.00;3.00
80555;PMS5003;69889;55.040;73.076;2023-11-18T06:08:00;5.00;4.00;2.75
80555;PMS5003;69889;55.040;73.076;2023-11-18T06:10:27;6.00;5.00;4.00
80555;PMS5003;69889;55.040;73.076;2023-11-18T06:12:54;6.00;4.00;2.25
80555;PMS5003;69889;55.040;73.076;2023-11-18T06:15:22;7.00;6.00;3.00
80555;PMS5003;69889;55.040;73.076;2023-11-18T06:17:48;4.00;4.00;3.00
80555;PMS5003;69889;55.040;73.076;2023-11-18T06:20:18;7.00;5.50;3.00
80555;PMS5003;69889;55.040;73.076;2023-11-18T06:22:48;6.00;6.00;3.00
80555;PMS5003;69889;55.040;73.076;2023-11-18T06:25:17;5.75;5.00;3.00
80555;PMS5003;69889;55.040;73.076;2023-11-18T06:27:44;5.00;4.00;3.00
80555;PMS5003;69889;55.040;73.076;2023-11-18T06:30:13;5.00;5.00;4.00
80555;PMS5003;69889;55.040;73.076;2023-11-18T06:32:41;4.00;4.00;3.00
80555;PMS5003;69889;55.040;73.076;2023-11-18T06:35:08;4.50;4.00;2.75
80555;PMS5003;69889;55.040;73.076;2023-11-18T06:37:34;5.00;4.00;3.00
80555;PMS5003;69889;55.040;73.076;2023-11-18T06:40:01;6.00;5.00;3.00
80555;PMS5003;69889;55.040;73.076;2023-11-18T06:42:28;7.00;5.00;3.00
80555;PMS5003;69889;55.040;73.076;2023-11-18T06:44:55;5.50;4.00;2.00
80555;PMS5003;69889;55.040;73.076;2023-11-18T06:47:21;4.75;4.00;2.75
80555;PMS5003;69889;55.040;73.076;2023-11-18T06:49:48;6.50;6.00;3.75
80555;PMS5003;69889;55.040;73.076;2023-11-18T06:52:18;5.00;5.00;3.00
80555;PMS5003;69889;55.040;73.076;2023-11-18T06:54:45;6.75;6.00;4.00
80555;PMS5003;69889;55.040;73.076;2023-11-18T06:57:11;8.00;6.00;4.00
80555;PMS5003;69889;55.040;73.076;2023-11-18T06:59:38;5.00;5.00;3.00
80555;PMS5003;69889;55.040;73.076;2023-11-18T07:02:04;6.00;5.00;3.00
80555;PMS5003;69889;55.040;73.076;2023-11-18T07:04:32;5.00;4.00;3.00
80555;PMS5003;69889;55.040;73.076;2023-11-18T07:06:58;6.00;5.00;3.00
80555;PMS5003;69889;55.040;73.076;2023-11-18T07:09:24;4.00;3.00;2.00
80555;PMS5003;69889;55.040;73.076;2023-11-18T07:11:51;4.00;4.00;2.50
80555;PMS5003;69889;55.040;73.076;2023-11-18T07:14:18;3.25;3.00;2.00
80555;PMS5003;69889;55.040;73.076;2023-11-18T07:16:44;4.00;3.75;2.25
80555;PMS5003;69889;55.040;73.076;2023-11-18T07:19:11;3.00;2.00;1.00
80555;PMS5003;69889;55.040;73.076;2023-11-18T07:21:46;4.25;4.00;2.00
80555;PMS5003;69889;55.040;73.076;2023-11-18T07:24:13;3.25;3.00;2.00
80555;PMS5003;69889;55.040;73.076;2023-11-18T07:26:39;3.00;2.25;2.00
80555;PMS5003;69889;55.040;73.076;2023-11-18T07:29:06;4.00;3.75;1.75
80555;PMS5003;69889;55.040;73.076;2023-11-18T07:31:35;4.00;3.00;3.00
80555;PMS5003;69889;55.040;73.076;2023-11-18T07:34:04;3.00;2.75;2.00
80555;PMS5003;69889;55.040;73.076;2023-11-18T07:36:31;5.00;4.25;3.00
80555;PMS5003;69889;55.040;73.076;2023-11-18T07:38:59;3.00;3.00;2.00
80555;PMS5003;69889;55.040;73.076;2023-11-18T07:41:32;5.00;4.00;3.00
80555;PMS5003;69889;55.040;73.076;2023-11-18T07:43:59;4.00;3.00;2.00
80555;PMS5003;69889;55.040;73.076;2023-11-18T07:46:26;6.00;5.00;2.25
80555;PMS5003;69889;55.040;73.076;2023-11-18T07:48:54;5.00;4.00;3.00
80555;PMS5003;69889;55.040;73.076;2023-11-18T07:51:21;4.00;4.00;3.00
80555;PMS5003;69889;55.040;73.076;2023-11-18T07:53:48;4.00;4.00;2.00
80555;PMS5003;69889;55.040;73.076;2023-11-18T07:56:18;5.00;5.00;3.00
80555;PMS5003;69889;55.040;73.076;2023-11-18T07:58:45;4.50;4.00;2.50
80555;PMS5003;69889;55.040;73.076;2023-11-18T08:01:12;5.00;4.00;2.75
80555;PMS5003;69889;55.040;73.076;2023-11-18T08:03:38;5.00;3.50;2.00
80555;PMS5003;69889;55.040;73.076;2023-11-18T08:06:07;4.50;4.00;3.00
80555;PMS5003;69889;55.040;73.076;2023-11-18T08:08:34;5.00;4.00;3.00
80555;PMS5003;69889;55.040;73.076;2023-11-18T08:11:06;4.75;4.25;3.00
80555;PMS5003;69889;55.040;73.076;2023-11-18T08:13:33;5.00;5.00;3.75
80555;PMS5003;69889;55.040;73.076;2023-11-18T08:15:59;5.50;5.00;4.00
80555;PMS5003;69889;55.040;73.076;2023-11-18T08:18:27;6.00;5.00;4.00
80555;PMS5003;69889;55.040;73.076;2023-11-18T08:20:57;4.00;4.00;2.50
80555;PMS5003;69889;55.040;73.076;2023-11-18T08:23:26;6.00;6.00;5.00
80555;PMS5003;69889;55.040;73.076;2023-11-18T08:25:54;5.00;5.00;3.00
80555;PMS5003;69889;55.040;73.076;2023-11-18T08:28:20;4.00;4.00;3.00
80555;PMS5003;69889;55.040;73.076;2023-11-18T08:30:47;4.00;4.00;3.00
80555;PMS5003;69889;55.040;73.076;2023-11-18T08:33:14;5.00;5.00;4.00
80555;PMS5003;69889;55.040;73.076;2023-11-18T08:35:41;5.00;5.00;3.75
80555;PMS5003;69889;55.040;73.076;2023-11-18T08:38:08;6.25;6.00;4.00
80555;PMS5003;69889;55.040;73.076;2023-11-18T08:40:38;6.00;5.00;4.00
80555;PMS5003;69889;55.040;73.076;2023-11-18T08:43:04;6.25;6.00;4.00
80555;PMS5003;69889;55.040;73.076;2023-11-18T08:45:33;6.00;6.00;4.00
80555;PMS5003;69889;55.040;73.076;2023-11-18T08:48:01;7.00;6.00;5.00
80555;PMS5003;69889;55.040;73.076;2023-11-18T08:50:28;6.00;6.00;4.00
80555;PMS5003;69889;55.040;73.076;2023-11-18T08:52:55;7.00;6.25;4.00
80555;PMS5003;69889;55.040;73.076;2023-11-18T08:55:26;7.00;6.00;4.00
80555;PMS5003;69889;55.040;73.076;2023-11-18T08:58:05;5.75;5.00;3.75
80555;PMS5003;69889;55.040;73.076;2023-11-18T09:00:42;5.00;5.00;4.00
80555;PMS5003;69889;55.040;73.076;2023-11-18T09:03:12;8.00;6.00;3.00
80555;PMS5003;69889;55.040;73.076;2023-11-18T09:05:51;7.00;7.00;5.00
80555;PMS5003;69889;55.040;73.076;2023-11-18T09:08:27;11.50;10.75;6.75
80555;PMS5003;69889;55.040;73.076;2023-11-18T09:10:56;11.00;10.00;6.00
80555;PMS5003;69889;55.040;73.076;2023-11-18T09:13:22;7.00;6.00;5.00
80555;PMS5003;69889;55.040;73.076;2023-11-18T09:16:14;7.50;7.00;5.00
80555;PMS5003;69889;55.040;73.076;2023-11-18T09:18:42;8.25;7.00;4.25
80555;PMS5003;69889;55.040;73.076;2023-11-18T09:21:11;7.00;6.25;4.25
80555;PMS5003;69889;55.040;73.076;2023-11-18T09:23:43;7.50;6.50;4.50
80555;PMS5003;69889;55.040;73.076;2023-11-18T09:26:18;8.00;7.00;5.00
80555;PMS5003;69889;55.040;73.076;2023-11-18T09:28:47;9.00;8.00;5.00
80555;PMS5003;69889;55.040;73.076;2023-11-18T09:31:15;6.25;5.75;3.25
80555;PMS5003;69889;55.040;73.076;2023-11-18T09:33:42;7.25;6.25;3.75
80555;PMS5003;69889;55.040;73.076;2023-11-18T09:36:18;7.00;7.00;4.50
80555;PMS5003;69889;55.040;73.076;2023-11-18T09:38:45;7.00;6.00;5.00
80555;PMS5003;69889;55.040;73.076;2023-11-18T09:41:15;5.50;5.00;2.75
80555;PMS5003;69889;55.040;73.076;2023-11-18T09:43:43;8.00;7.00;4.50
80555;PMS5003;69889;55.040;73.076;2023-11-18T09:48:45;6.00;6.00;4.00
80555;PMS5003;69889;55.040;73.076;2023-11-18T09:51:22;6.00;5.25;3.75
80555;PMS5003;69889;55.040;73.076;2023-11-18T09:53:52;7.00;7.00;5.00
80555;PMS5003;69889;55.040;73.076;2023-11-18T09:56:34;5.00;4.75;3.50
80555;PMS5003;69889;55.040;73.076;2023-11-18T10:02:11;6.25;6.00;4.00
80555;PMS5003;69889;55.040;73.076;2023-11-18T10:04:38;8.00;7.00;5.00
80555;PMS5003;69889;55.040;73.076;2023-11-18T10:07:08;6.75;6.00;5.00
80555;PMS5003;69889;55.040;73.076;2023-11-18T10:09:37;10.00;9.00;6.00
80555;PMS5003;69889;55.040;73.076;2023-11-18T10:12:05;10.00;9.25;6.25
80555;PMS5003;69889;55.040;73.076;2023-11-18T10:14:32;11.00;9.00;6.00
80555;PMS5003;69889;55.040;73.076;2023-11-18T10:16:59;10.00;9.00;6.00
80555;PMS5003;69889;55.040;73.076;2023-11-18T10:19:49;8.00;8.00;5.75
80555;PMS5003;69889;55.040;73.076;2023-11-18T10:22:21;10.00;9.00;5.00
80555;PMS5003;69889;55.040;73.076;2023-11-18T10:24:49;8.00;7.00;5.00
80555;PMS5003;69889;55.040;73.076;2023-11-18T10:27:15;5.75;5.50;3.75
80555;PMS5003;69889;55.040;73.076;2023-11-18T10:29:42;7.00;6.00;4.00
80555;PMS5003;69889;55.040;73.076;2023-11-18T10:32:08;7.00;7.00;4.00
80555;PMS5003;69889;55.040;73.076;2023-11-18T10:34:35;8.00;6.75;4.00
80555;PMS5003;69889;55.040;73.076;2023-11-18T10:37:02;4.75;4.00;3.00
80555;PMS5003;69889;55.040;73.076;2023-11-18T10:39:29;5.75;4.75;3.00
80555;PMS5003;69889;55.040;73.076;2023-11-18T10:42:01;4.00;4.00;3.00
80555;PMS5003;69889;55.040;73.076;2023-11-18T10:44:28;5.25;5.00;3.00
80555;PMS5003;69889;55.040;73.076;2023-11-18T10:46:55;5.00;4.25;3.00
80555;PMS5003;69889;55.040;73.076;2023-11-18T10:49:28;6.00;5.00;3.00
80555;PMS5003;69889;55.040;73.076;2023-11-18T10:51:55;4.00;4.00;3.00
80555;PMS5003;69889;55.040;73.076;2023-11-18T10:54:22;4.00;4.00;2.00
80555;PMS5003;69889;55.040;73.076;2023-11-18T10:56:52;5.00;5.00;3.00
80555;PMS5003;69889;55.040;73.076;2023-11-18T10:59:22;7.00;6.00;4.00
80555;PMS5003;69889;55.040;73.076;2023-11-18T11:01:48;6.00;6.00;4.00
80555;PMS5003;69889;55.040;73.076;2023-11-18T11:04:15;12.00;10.00;5.50
80555;PMS5003;69889;55.040;73.076;2023-11-18T11:06:43;12.75;11.00;6.25
80555;PMS5003;69889;55.040;73.076;2023-11-18T11:09:18;9.00;9.00;6.00
80555;PMS5003;69889;55.040;73.076;2023-11-18T11:11:48;8.00;7.00;5.00
80555;PMS5003;69889;55.040;73.076;2023-11-18T11:14:14;10.00;9.00;6.00
80555;PMS5003;69889;55.040;73.076;2023-11-18T11:16:47;9.00;8.00;5.00
80555;PMS5003;69889;55.040;73.076;2023-11-18T11:19:23;10.00;8.00;5.00
80555;PMS5003;69889;55.040;73.076;2023-11-18T11:21:55;9.00;8.00;5.50
80555;PMS5003;69889;55.040;73.076;2023-11-18T11:29:40;8.00;7.00;4.00
80555;PMS5003;69889;55.040;73.076;2023-11-18T11:34:40;4.00;4.00;3.00
80555;PMS5003;69889;55.040;73.076;2023-11-18T11:37:08;3.00;3.00;2.00
80555;PMS5003;69889;55.040;73.076;2023-11-18T11:39:37;3.00;3.00;2.00
80555;PMS5003;69889;55.040;73.076;2023-11-18T11:42:04;3.00;2.00;1.00
80555;PMS5003;69889;55.040;73.076;2023-11-18T11:44:35;4.00;3.00;2.00
80555;PMS5003;69889;55.040;73.076;2023-11-18T11:47:08;4.00;3.75;2.00
80555;PMS5003;69889;55.040;73.076;2023-11-18T11:49:41;2.00;2.00;1.00
80555;PMS5003;69889;55.040;73.076;2023-11-18T11:52:22;3.00;2.00;2.00
80555;PMS5003;69889;55.040;73.076;2023-11-18T11:57:40;6.50;6.00;3.00
80555;PMS5003;69889;55.040;73.076;2023-11-18T12:00:09;4.00;4.00;2.00
80555;PMS5003;69889;55.040;73.076;2023-11-18T12:02:48;6.00;6.00;4.00
80555;PMS5003;69889;55.040;73.076;2023-11-18T12:05:17;8.00;6.75;4.00
80555;PMS5003;69889;55.040;73.076;2023-11-18T12:07:54;8.00;6.25;4.50
80555;PMS5003;69889;55.040;73.076;2023-11-18T12:10:21;8.00;8.00;6.00
80555;PMS5003;69889;55.040;73.076;2023-11-18T12:13:11;10.00;8.00;5.00
80555;PMS5003;69889;55.040;73.076;2023-11-18T12:18:17;9.00;8.75;5.00
80555;PMS5003;69889;55.040;73.076;2023-11-18T12:20:44;8.00;7.00;4.00
80555;PMS5003;69889;55.040;73.076;2023-11-18T12:23:13;8.75;7.00;4.00
80555;PMS5003;69889;55.040;73.076;2023-11-18T12:25:40;5.00;5.00;3.00
80555;PMS5003;69889;55.040;73.076;2023-11-18T12:28:10;6.00;5.00;4.00
80555;PMS5003;69889;55.040;73.076;2023-11-18T12:30:37;5.00;4.75;3.50
80555;PMS5003;69889;55.040;73.076;2023-11-18T12:33:07;4.00;3.00;2.00
80555;PMS5003;69889;55.040;73.076;2023-11-18T12:35:52;5.00;4.00;2.00
80555;PMS5003;69889;55.040;73.076;2023-11-18T12:40:56;3.00;3.00;2.00
80555;PMS5003;69889;55.040;73.076;2023-11-18T12:46:16;1.00;1.00;1.00
80555;PMS5003;69889;55.040;73.076;2023-11-18T12:48:45;2.00;2.00;1.00
80555;PMS5003;69889;55.040;73.076;2023-11-18T12:51:15;3.00;2.00;1.25
80555;PMS5003;69889;55.040;73.076;2023-11-18T12:53:48;4.00;3.00;2.00
80555;PMS5003;69889;55.040;73.076;2023-11-18T12:56:19;3.00;3.00;2.00
80555;PMS5003;69889;55.040;73.076;2023-11-18T12:58:46;5.00;4.50;3.00
80555;PMS5003;69889;55.040;73.076;2023-11-18T13:01:32;3.00;2.00;2.00
80555;PMS5003;69889;55.040;73.076;2023-11-18T13:04:02;4.75;4.00;2.00
80555;PMS5003;69889;55.040;73.076;2023-11-18T13:06:28;4.00;3.00;2.00
80555;PMS5003;69889;55.040;73.076;2023-11-18T13:08:55;3.00;2.75;2.00
80555;PMS5003;69889;55.040;73.076;2023-11-18T13:11:29;1.75;1.75;1.00
80555;PMS5003;69889;55.040;73.076;2023-11-18T13:13:56;3.00;3.00;2.00
80555;PMS5003;69889;55.040;73.076;2023-11-18T13:16:42;2.00;2.00;1.00
80555;PMS5003;69889;55.040;73.076;2023-11-18T13:19:11;1.00;1.00;0.75
80555;PMS5003;69889;55.040;73.076;2023-11-18T13:21:49;1.00;1.00;0.00
80555;PMS5003;69889;55.040;73.076;2023-11-18T13:24:32;2.00;1.00;0.00
80555;PMS5003;69889;55.040;73.076;2023-11-18T13:27:17;1.00;1.00;0.00
80555;PMS5003;69889;55.040;73.076;2023-11-18T13:29:46;1.00;1.00;1.00
80555;PMS5003;69889;55.040;73.076;2023-11-18T13:32:14;1.00;1.00;1.00
80555;PMS5003;69889;55.040;73.076;2023-11-18T13:34:41;1.00;0.50;0.00
80555;PMS5003;69889;55.040;73.076;2023-11-18T13:37:24;0.25;0.00;0.00
80555;PMS5003;69889;55.040;73.076;2023-11-18T13:39:54;0.00;0.00;0.00
80555;PMS5003;69889;55.040;73.076;2023-11-18T13:42:40;0.00;0.00;0.00
80555;PMS5003;69889;55.040;73.076;2023-11-18T13:45:11;0.00;0.00;0.00
80555;PMS5003;69889;55.040;73.076;2023-11-18T13:47:50;0.00;0.00;0.00
80555;PMS5003;69889;55.040;73.076;2023-11-18T13:50:23;0.00;0.00;0.00
80555;PMS5003;69889;55.040;73.076;2023-11-18T13:52:51;0.00;0.00;0.00
80555;PMS5003;69889;55.040;73.076;2023-11-18T13:55:17;0.00;0.00;0.00
80555;PMS5003;69889;55.040;73.076;2023-11-18T13:57:52;0.00;0.00;0.00
80555;PMS5003;69889;55.040;73.076;2023-11-18T14:00:19;0.00;0.00;0.00
80555;PMS5003;69889;55.040;73.076;2023-11-18T14:02:49;0.00;0.00;0.00
80555;PMS5003;69889;55.040;73.076;2023-11-18T14:05:17;0.00;0.00;0.00
80555;PMS5003;69889;55.040;73.076;2023-11-18T14:07:45;0.00;0.00;0.00
80555;PMS5003;69889;55.040;73.076;2023-11-18T14:10:14;0.00;0.00;0.00
80555;PMS5003;69889;55.040;73.076;2023-11-18T14:12:57;0.00;0.00;0.00
80555;PMS5003;69889;55.040;73.076;2023-11-18T14:15:24;0.00;0.00;0.00
80555;PMS5003;69889;55.040;73.076;2023-11-18T14:17:50;0.00;0.00;0.00
80555;PMS5003;69889;55.040;73.076;2023-11-18T14:20:18;0.00;0.00;0.00
80555;PMS5003;69889;55.040;73.076;2023-11-18T14:22:48;0.00;0.00;0.00
80555;PMS5003;69889;55.040;73.076;2023-11-18T14:25:15;0.00;0.00;0.00
80555;PMS5003;69889;55.040;73.076;2023-11-18T14:27:42;0.00;0.00;0.00
80555;PMS5003;69889;55.040;73.076;2023-11-18T14:30:09;0.00;0.00;0.00